Big Falls, Minnesota
Current Conditions -  °F | °C
As of 8:13 AM on Saturday 25 Oct 2014 (Local Time) from KFOZ Reporting Station
Clear Clear  
Wind Chill: 39°   Ceiling: Unl
Heat Index: 43°   Visibility: 10mi
Dew Point: 32°   Wind: 6mph
Humidity: 66%   Direction: 260°W
Pressure: 29.93"   Gusts: NA
Location:  48.19°N, 93.81°W
Report Text: KFOZ 251313Z AUTO 26005KT 10SM CLR 06/00 A2993 RMK AO2
Loading
Personal Weather Stations






























Interactive Weather Map
Tropical Storm Tracking
New forecast layout! Learn more

10-Day Weather Forecast

Advertisements
Track Severe Weather on mobile